Data for 09/13/2008

Time Sea-Level Adjusted Pressure Absolute Pressure Temperature Relative Humidity Dew Point   
(mb) (inHg) (mb) (inHg) (C) (F) (%) (C) (F)
00:05 1015 29.97 845 24.95 10.8 51.5 52 1.4 34.5
00:10 1015 29.97 845 24.95 11 51.8 52 1.6 34.9
00:15 1015 29.97 845 24.95 11.1 52 51 1.4 34.4
00:20 1016 30 845 24.95 11.4 52.5 49 1 33.9
00:25 1016 30 845 24.95 11.5 52.6 48 0.8 33.4
00:30 1016 30 845 24.95 11.8 53.2 47 0.8 33.5
00:35 1016 30 845 24.95 11.8 53.2 45 0.4 32.6
00:40 1016 30 845 24.95 12.1 53.7 46 0.8 33.4
00:45 1016 30 845 24.95 11.9 53.3 46 0.6 33.2
00:50 1016 30 845 24.95 11.9 53.4 46 0.8 33.5
00:55 1016 30 845 24.95 12 53.7 48 1.4 34.6
01:00 1016 30 845 24.95 11.9 53.5 47 1.1 34
01:05 1016 30 845 24.95 11.9 53.5 49 1.5 34.6
01:10 1016 30 845 24.95 12 53.5 49 1.7 35.1
01:15 1016 30 845 24.95 12 53.7 49 1.6 34.9
01:20 1016 30 845 24.95 11.9 53.5 50 2 35.5
01:25 1016 30 845 24.95 11.7 53.1 51 2.1 35.7
01:30 1016 30 845 24.95 11.5 52.8 52 2.1 35.8
01:35 1016 30 845 24.95 11.3 52.3 53 2 35.6
01:40 1016 30 845 24.95 11.5 52.7 52 2.1 35.7
01:45 1016 30 845 24.95 11.3 52.4 55 2.6 36.6
01:50 1016 30 845 24.95 11 51.7 55 2.4 36.3
01:55 1016 30 845 24.95 10.8 51.5 56 2.4 36.3
02:00 1016 30 845 24.95 10.9 51.7 55 2.4 36.3
02:05 1016 30 845 24.95 10.6 51 57 2.3 36.2
02:10 1016 30 845 24.95 11.1 51.9 52 1.8 35.2
02:15 1016 30 845 24.95 11.6 52.9 52 2.2 36
02:20 1016 30 845 24.95 11.8 53.2 52 2.2 35.9
02:25 1016 30 845 24.95 12 53.7 51 2.3 36.1
02:30 1016 30 845 24.95 11.6 52.8 55 2.9 37.3
02:35 1016 30 845 24.95 10.7 51.3 57 2.6 36.6
02:40 1016 30 845 24.95 10.5 50.9 58 2.7 36.8
02:45 1016 30 845 24.95 10.6 51.1 57 2.6 36.7
02:50 1016 30 845 24.95 10.8 51.5 57 2.8 37
02:55 1016 30 845 24.95 10.4 50.7 59 2.8 37
03:00 1016 30 845 24.95 10.3 50.5 59 2.7 36.8
03:05 1016 30 845 24.95 10.6 51 58 2.7 36.8
03:10 1016 30 845 24.95 10.5 50.8 58 2.7 36.8
03:15 1016 30 845 24.95 10.4 50.6 57 2.2 36
03:20 1016 30 845 24.95 10.8 51.4 55 2.2 36
03:25 1016 30 845 24.95 11 51.7 54 2.1 35.8
03:30 1016 30 845 24.95 11.1 52.1 54 2.1 35.8
03:35 1016 30 845 24.95 11.1 52 53 2.1 35.7
03:40 1016 30 846 24.98 11.1 52 55 2.3 36.2
03:45 1016 30 846 24.98 10.7 51.3 55 2.2 35.9
03:50 1016 30 846 24.98 10.5 50.9 55 1.9 35.4
03:55 1016 30 846 24.98 11 51.8 54 2.1 35.7
04:00 1017 30.03 846 24.98 11.2 52.2 54 2.4 36.3
04:05 1017 30.03 846 24.98 11 51.7 56 2.7 36.9
04:10 1017 30.03 846 24.98 11.3 52.3 55 2.6 36.7
04:15 1017 30.03 846 24.98 11.1 51.9 57 2.8 37
04:20 1017 30.03 846 24.98 10.6 51.1 59 2.9 37.2
04:25 1017 30.03 846 24.98 10.3 50.5 61 3.1 37.6
04:30 1017 30.03 846 24.98 9.6 49.2 65 3.4 38.2
04:35 1017 30.03 847 25.01 8.9 47.9 68 3.2 37.8
04:40 1017 30.03 847 25.01 8.4 47.2 69 3.1 37.7
04:45 1017 30.03 847 25.01 8.2 46.8 69 3 37.4
04:50 1017 30.03 847 25.01 8.2 46.7 69 2.9 37.2
04:55 1018 30.06 847 25.01 7.9 46.3 71 3 37.3
05:00 1018 30.06 847 25.01 7.6 45.6 73 3 37.4
05:05 1018 30.06 847 25.01 7.3 45.1 74 2.9 37.2
05:10 1018 30.06 847 25.01 7.4 45.4 76 3.5 38.2
05:15 1018 30.06 847 25.01 7.9 46.2 76 4 39.2
05:20 1018 30.06 847 25.01 8.4 47 74 4.1 39.3
05:25 1018 30.06 847 25.01 8.8 47.8 74 4.4 39.9
05:30 1018 30.06 847 25.01 9.1 48.3 73 4.5 40.1
05:35 1018 30.06 847 25.01 9.3 48.8 71 4.4 40
05:40 1018 30.06 848 25.04 9.4 49 72 4.6 40.4
05:45 1018 30.06 848 25.04 9.5 49 71 4.5 40.2
05:50 1019 30.09 848 25.04 9.5 49.1 73 4.8 40.7
05:55 1019 30.09 848 25.04 9.2 48.5 75 4.9 40.9
06:00 1019 30.09 848 25.04 8.9 48.1 75 4.8 40.7
06:05 1019 30.09 848 25.04 8.8 47.8 76 4.8 40.7
06:10 1019 30.09 848 25.04 8.7 47.6 77 4.9 40.7
06:15 1019 30.09 848 25.04 8.7 47.6 77 4.8 40.6
06:20 1019 30.09 848 25.04 8.6 47.6 77 4.9 40.7
06:25 1019 30.09 848 25.04 8.5 47.2 78 4.8 40.7
06:30 1019 30.09 849 25.07 8.3 47 78 4.8 40.6
06:35 1019 30.09 849 25.07 8.3 46.9 79 4.8 40.7
06:40 1020 30.12 849 25.07 8.1 46.6 80 4.8 40.7
06:45 1020 30.12 849 25.07 7.9 46.3 80 4.8 40.6
06:50 1020 30.12 849 25.07 7.9 46.3 80 4.8 40.6
06:55 1020 30.12 849 25.07 7.9 46.2 80 4.7 40.5
07:00 1020 30.12 849 25.07 7.8 46.1 81 4.8 40.6
07:05 1020 30.12 849 25.07 7.8 46 81 4.7 40.5
07:10 1020 30.12 849 25.07 7.6 45.6 82 4.7 40.5
07:15 1020 30.12 849 25.07 6.9 44.3 84 4.4 39.9
07:20 1020 30.12 849 25.07 6.8 44.2 84 4.2 39.6
07:25 1020 30.12 849 25.07 6.7 44.1 85 4.3 39.8
07:30 1020 30.12 849 25.07 6.7 44.1 85 4.4 39.8
07:35 1020 30.12 850 25.1 6.9 44.5 84 4.4 39.9
07:40 1020 30.12 850 25.1 7.2 44.9 83 4.5 40
07:45 1021 30.15 850 25.1 7.4 45.3 82 4.4 40
07:50 1021 30.15 850 25.1 7.4 45.4 82 4.6 40.2
07:55 1021 30.15 850 25.1 7.3 45.2 83 4.6 40.3
08:00 1021 30.15 850 25.1 7.3 45.1 83 4.6 40.3
08:05 1021 30.15 850 25.1 7.3 45.1 83 4.6 40.3
08:10 1021 30.15 850 25.1 7.2 45 84 4.7 40.5
08:15 1021 30.15 850 25.1 7.3 45.1 83 4.6 40.2
08:20 1021 30.15 850 25.1 7.6 45.7 81 4.6 40.3
08:25 1021 30.15 850 25.1 7.5 45.5 82 4.7 40.4
08:30 1021 30.15 850 25.1 7.5 45.5 83 4.7 40.5
08:35 1021 30.15 850 25.1 7.5 45.4 83 4.7 40.5
08:40 1021 30.15 851 25.13 7.5 45.6 83 4.8 40.6
08:45 1021 30.15 851 25.13 7.9 46.2 80 4.6 40.3
08:50 1022 30.18 851 25.13 8.1 46.7 79 4.7 40.5
08:55 1022 30.18 851 25.13 8.5 47.3 78 4.9 40.8
09:00 1022 30.18 851 25.13 8.7 47.7 77 5 41
09:05 1022 30.18 851 25.13 8.7 47.6 78 5.1 41.2
09:10 1022 30.18 851 25.13 8.5 47.3 78 5 41
09:15 1022 30.18 851 25.13 8.6 47.4 78 4.9 40.8
09:20 1022 30.18 851 25.13 8.6 47.5 77 4.9 40.8
09:25 1022 30.18 851 25.13 8.5 47.4 78 5 41
09:30 1022 30.18 851 25.13 8.5 47.3 79 5 41
09:35 1022 30.18 851 25.13 8.5 47.2 78 4.8 40.7
09:40 1022 30.18 852 25.16 8.3 47 78 4.7 40.5
09:45 1022 30.18 852 25.16 8.4 47.1 78 4.7 40.5
09:50 1023 30.21 852 25.16 8.5 47.3 77 4.7 40.4
09:55 1022 30.18 852 25.16 8.5 47.3 76 4.5 40.1
10:00 1023 30.21 852 25.16 8.5 47.3 77 4.7 40.4
10:05 1023 30.21 852 25.16 8.5 47.3 80 5.2 41.4
10:10 1023 30.21 852 25.16 8.4 47.2 81 5.3 41.6
10:15 1023 30.21 852 25.16 8.5 47.3 81 5.4 41.7
10:20 1023 30.21 852 25.16 8.5 47.2 80 5.3 41.5
10:25 1023 30.21 852 25.16 8.3 46.9 78 4.7 40.5
10:30 1023 30.21 852 25.16 8.3 47 80 5.1 41.1
10:35 1023 30.21 852 25.16 8.2 46.8 79 4.9 40.8
10:40 1023 30.21 853 25.19 8.2 46.7 80 4.9 40.8
10:45 1023 30.21 853 25.19 8.1 46.6 77 4.3 39.7
10:50 1023 30.21 853 25.19 8.2 46.8 76 4.3 39.8
10:55 1024 30.24 853 25.19 8.7 47.6 76 4.7 40.5
11:00 1024 30.24 853 25.19 8.8 47.8 76 4.7 40.4
11:05 1024 30.24 853 25.19 8.7 47.7 74 4.3 39.8
11:10 1024 30.24 853 25.19 8.4 47.2 75 4.3 39.7
11:15 1024 30.24 853 25.19 8.3 47 77 4.6 40.3
11:20 1024 30.24 853 25.19 8.4 47.1 76 4.3 39.8
11:25 1024 30.24 853 25.19 8.4 47.2 76 4.4 40
11:30 1024 30.24 853 25.19 8.5 47.3 76 4.6 40.3
11:35 1024 30.24 853 25.19 8.6 47.4 75 4.5 40
11:40 1024 30.24 853 25.19 8.6 47.5 75 4.4 39.8
11:45 1024 30.24 853 25.19 8.5 47.2 75 4.2 39.6
11:50 1024 30.24 854 25.22 8.4 47.1 74 4 39.2
11:55 1024 30.24 854 25.22 8.2 46.7 74 3.9 39.1
12:00 1024 30.24 854 25.22 8.2 46.8 78 4.6 40.3
12:05 1024 30.24 854 25.22 8.4 47.1 77 4.6 40.3
12:10 1025 30.27 854 25.22 8.3 46.9 77 4.5 40.2
12:15 1025 30.27 854 25.22 8.3 46.9 78 4.6 40.2
12:20 1025 30.27 854 25.22 8.5 47.3 73 4 39.3
12:25 1025 30.27 854 25.22 8.5 47.3 72 3.8 38.9
12:30 1025 30.27 854 25.22 8.4 47.2 73 3.8 38.9
12:35 1025 30.27 854 25.22 8.4 47.2 73 3.8 38.9
12:40 1025 30.27 854 25.22 8.5 47.2 74 4.2 39.5
12:45 1025 30.27 854 25.22 8.7 47.7 76 4.7 40.5
12:50 1025 30.27 854 25.22 8.9 48.1 70 3.8 38.9
12:55 1025 30.27 854 25.22 9.2 48.5 69 3.9 39
13:00 1025 30.27 854 25.22 9.4 48.8 71 4.3 39.8
13:05 1025 30.27 854 25.22 9.6 49.3 68 4 39.2
13:10 1025 30.27 854 25.22 9.9 49.8 66 3.9 39
13:15 1025 30.27 854 25.22 9.3 48.8 69 3.9 39.1
13:20 1025 30.27 854 25.22 9.6 49.2 68 4 39.1
13:25 1025 30.27 854 25.22 9.8 49.7 67 4.1 39.3
13:30 1025 30.27 854 25.22 9.5 49.1 68 4 39.1
13:35 1025 30.27 854 25.22 10 50 66 4 39.2
13:40 1025 30.27 854 25.22 10.3 50.5 67 4.4 39.8
13:45 1025 30.27 854 25.22 10.2 50.3 62 3.2 37.7
13:50 1025 30.27 854 25.22 10.6 51.1 61 3.5 38.4
13:55 1025 30.27 854 25.22 11.2 52.1 61 3.9 39.1
14:00 1025 30.27 854 25.22 11.3 52.3 62 4.3 39.7
14:05 1025 30.27 854 25.22 11.3 52.4 60 3.9 39
14:10 1025 30.27 854 25.22 11.8 53.2 54 2.8 37.1
14:15 1025 30.27 854 25.22 12.1 53.7 55 3.3 38
14:20 1025 30.27 854 25.22 11.9 53.5 56 3.4 38.2
14:25 1025 30.27 854 25.22 12.6 54.6 53 3.2 37.8
14:30 1025 30.27 854 25.22 12.8 55 52 3.2 37.8
14:35 1025 30.27 854 25.22 12.9 55.3 46 1.7 35.1
14:40 1025 30.27 854 25.22 12.9 55.3 46 1.5 34.8
14:45 1025 30.27 854 25.22 13.5 56.3 44 1.5 34.7
14:50 1025 30.27 854 25.22 13.6 56.5 44 1.5 34.7
14:55 1025 30.27 854 25.22 14 57.1 44 1.9 35.3
15:00 1025 30.27 854 25.22 13.3 56 45 1.9 35.3
15:05 1025 30.27 854 25.22 13.7 56.6 44 1.6 34.9
15:10 1025 30.27 854 25.22 14.5 58.2 42 1.8 35.3
15:15 1025 30.27 854 25.22 14.3 57.7 44 2.3 36.2
15:20 1025 30.27 854 25.22 14.7 58.4 40 1.4 34.5
15:25 1025 30.27 854 25.22 14.5 58 42 1.9 35.5
15:30 1024 30.24 854 25.22 14.5 58.1 43 2.2 35.9
15:35 1024 30.24 854 25.22 14.2 57.6 41 1.3 34.4
15:40 1024 30.24 854 25.22 14.5 58.1 42 1.7 35.1
15:45 1024 30.24 854 25.22 15.1 59.1 42 2.4 36.4
15:50 1024 30.24 854 25.22 14 57.1 45 2.2 35.9
15:55 1024 30.24 854 25.22 14 57.2 41 1.2 34.1
16:00 1024 30.24 854 25.22 14 57.3 43 1.6 34.9
16:05 1024 30.24 853 25.19 14.4 57.9 42 1.8 35.2
16:10 1024 30.24 853 25.19 13.9 57 44 1.8 35.3
16:15 1024 30.24 853 25.19 13.8 56.8 43 1.6 34.9
16:20 1024 30.24 853 25.19 14.1 57.3 42 1.4 34.5
16:25 1024 30.24 853 25.19 14.2 57.6 42 1.5 34.8
16:30 1024 30.24 853 25.19 14.4 57.8 40 1.1 34.1
16:35 1024 30.24 853 25.19 15.4 59.8 38 1.3 34.4
16:40 1024 30.24 853 25.19 15.6 60.1 38 1.6 34.8
16:45 1024 30.24 853 25.19 15.9 60.6 36 1.1 34
16:50 1024 30.24 853 25.19 16.2 61.1 36 1.3 34.3
16:55 1024 30.24 853 25.19 16 60.9 37 1.5 34.6
17:00 1024 30.24 853 25.19 16.3 61.3 36 1.1 34.1
17:05 1024 30.24 853 25.19 16.1 60.9 36 1.1 34.1
17:10 1024 30.24 853 25.19 16 60.8 35 0.6 33
17:15 1024 30.24 853 25.19 16 60.8 36 1.2 34.2
17:20 1024 30.24 853 25.19 14.6 58.4 38 0.5 32.9
17:25 1024 30.24 853 25.19 14.5 58.1 39 0.7 33.3
17:30 1024 30.24 853 25.19 15.4 59.7 37 0.7 33.3
17:35 1024 30.24 853 25.19 15.7 60.3 34 -0 32
17:40 1024 30.24 853 25.19 15.6 60.1 34 0.1 32.1
17:45 1024 30.24 853 25.19 15.8 60.4 33 -0.2 31.7
17:50 1024 30.24 853 25.19 15.6 60.1 33 -0.4 31.2
17:55 1024 30.24 853 25.19 15.3 59.5 34 -0.4 31.2
18:00 1024 30.24 853 25.19 15.5 59.9 35 0.2 32.4
18:05 1024 30.24 853 25.19 15.5 59.9 36 0.6 33
18:10 1024 30.24 853 25.19 14.5 58.1 38 0.5 32.8
18:15 1024 30.24 853 25.19 14.4 57.9 39 0.9 33.5
18:20 1024 30.24 853 25.19 14.5 58 41 1.5 34.6
18:25 1024 30.24 853 25.19 14.2 57.6 39 0.7 33.2
18:30 1024 30.24 853 25.19 13.9 57 39 0.4 32.6
18:35 1024 30.24 853 25.19 14 57.2 38 0.1 32.1
18:40 1024 30.24 853 25.19 14 57.1 39 0.5 32.8
18:45 1024 30.24 853 25.19 13.8 56.8 39 0.3 32.6
18:50 1024 30.24 853 25.19 13.6 56.4 41 0.5 32.9
18:55 1024 30.24 853 25.19 13.4 56.2 39 -0.1 31.9
19:00 1024 30.24 853 25.19 13.5 56.2 40 0.3 32.6
19:05 1024 30.24 853 25.19 13.3 56 40 0.2 32.4
19:10 1024 30.24 853 25.19 13.3 55.9 41 0.3 32.6
19:15 1024 30.24 853 25.19 13.1 55.6 41 0.1 32.3
19:20 1024 30.24 853 25.19 13.1 55.6 40 -0.1 31.7
19:25 1024 30.24 853 25.19 13.2 55.7 42 0.5 32.9
19:30 1024 30.24 853 25.19 13.1 55.5 43 0.9 33.7
19:35 1024 30.24 853 25.19 12.8 55 45 1.1 34
19:40 1024 30.24 853 25.19 12.5 54.5 46 1.3 34.3
19:45 1024 30.24 853 25.19 12.3 54.2 47 1.3 34.4
19:50 1024 30.24 853 25.19 11.9 53.3 56 3.4 38.1
19:55 1024 30.24 853 25.19 11 51.7 59 3.4 38
20:00 1024 30.24 853 25.19 10.4 50.8 61 3.2 37.8
20:05 1024 30.24 853 25.19 9.9 49.7 63 3.1 37.6
20:10 1024 30.24 853 25.19 9.4 48.9 64 2.9 37.2
20:15 1024 30.24 853 25.19 9.2 48.6 63 2.7 36.8
20:20 1024 30.24 853 25.19 9 48.3 64 2.7 36.9
20:25 1024 30.24 853 25.19 8.5 47.3 70 3.5 38.2
20:30 1024 30.24 853 25.19 7.8 46 65 1.6 35
20:35 1024 30.24 853 25.19 8.6 47.4 61 1.5 34.7
20:40 1024 30.24 853 25.19 8.7 47.6 63 1.9 35.5
20:45 1024 30.24 854 25.22 8.5 47.3 63 1.9 35.5
20:50 1024 30.24 854 25.22 8.3 46.9 64 2 35.5
20:55 1024 30.24 854 25.22 8.2 46.7 65 2 35.6
21:00 1024 30.24 854 25.22 8 46.4 66 2 35.5
21:05 1024 30.24 854 25.22 7.9 46.3 66 2 35.6
21:10 1024 30.24 854 25.22 7.6 45.7 67 2 35.6
21:15 1024 30.24 854 25.22 7.3 45.2 68 1.9 35.3
21:20 1024 30.24 854 25.22 7.1 44.9 69 1.9 35.3
21:25 1024 30.24 854 25.22 6.9 44.4 69 1.6 34.9
21:30 1025 30.27 854 25.22 6.9 44.4 68 1.4 34.4
21:35 1025 30.27 854 25.22 7 44.6 68 1.5 34.8
21:40 1025 30.27 854 25.22 6.9 44.4 70 1.8 35.2
21:45 1024 30.24 854 25.22 6.7 44 71 1.7 35.1
21:50 1024 30.24 854 25.22 6.6 43.8 71 1.7 35.1
21:55 1024 30.24 854 25.22 6.6 43.9 72 1.8 35.3
22:00 1024 30.24 854 25.22 6.7 44 73 2.2 35.9
22:05 1024 30.24 854 25.22 6.8 44.2 75 2.6 36.7
22:10 1024 30.24 854 25.22 6.9 44.4 73 2.5 36.5
22:15 1024 30.24 854 25.22 7 44.7 73 2.4 36.4
22:20 1024 30.24 854 25.22 6.9 44.5 72 2.2 35.9
22:25 1024 30.24 854 25.22 6.8 44.2 72 2.1 35.8
22:30 1024 30.24 854 25.22 6.9 44.3 72 2.2 35.9
22:35 1024 30.24 854 25.22 6.8 44.3 72 2.2 36
22:40 1024 30.24 854 25.22 6.7 44 73 2.2 36
22:45 1024 30.24 854 25.22 6.6 43.9 73 2.2 36
22:50 1024 30.24 854 25.22 6.8 44.2 72 2.2 35.9
22:55 1024 30.24 853 25.19 7.2 45 70 2.2 36
23:00 1024 30.24 853 25.19 7.4 45.3 70 2.2 36
23:05 1024 30.24 853 25.19 7.5 45.4 70 2.4 36.2
23:10 1024 30.24 853 25.19 7.4 45.2 71 2.4 36.3
23:15 1024 30.24 853 25.19 7 44.6 72 2.4 36.3
23:20 1024 30.24 853 25.19 6.4 43.5 74 2.1 35.7
23:25 1024 30.24 853 25.19 5.9 42.6 73 1.4 34.6
23:30 1024 30.24 853 25.19 5.8 42.4 72 1.1 34.1
23:35 1024 30.24 853 25.19 5.8 42.4 73 1.3 34.4
23:40 1024 30.24 853 25.19 5.8 42.5 73 1.4 34.6
23:45 1024 30.24 853 25.19 5.9 42.6 74 1.5 34.8
23:50 1024 30.24 853 25.19 5.8 42.4 74 1.6 34.9
23:55 1024 30.24 853 25.19 5.8 42.5 74 1.6 34.9
24:00 1024 30.24 853 25.19 5.8 42.5 74 1.6 34.9